Time;durP1;ratioP1;P1;durP2;ratioP2;P2;SDS_P1;SDS_P2;PMS_P1;PMS_P2;Temp;Humidity;BMP_temperature;BMP_pressure;BME280_temperature;BME280_humidity;BME280_pressure;Samples;Min_cycle;Max_cycle;Signal;HPM_P1;HPM_P2
2023/05/15 00:00:28;;;;;;;;;;;13.60;66.00;;;9.12;100.00;95231.50;4938385;29;19910;-47
2023/05/15 00:02:55;;;;;;;;;;;13.60;66.70;;;9.15;100.00;95227.50;4937107;28;19910;-47
2023/05/15 00:05:21;;;;;;;;;;;13.60;66.00;;;9.14;100.00;95221.38;4952875;28;19945;-45
2023/05/15 00:07:47;;;;;;;;;;;13.70;66.00;;;9.15;100.00;95217.69;4937329;28;20416;-50
2023/05/15 00:10:13;;;;;;;;;;;13.70;66.00;;;9.16;100.00;95221.13;4936903;29;20309;-46
2023/05/15 00:12:39;;;;;;;;;;;13.70;66.10;;;9.16;100.00;95223.78;4937552;29;19961;-48
2023/05/15 00:15:06;;;;;;;;;;;13.70;66.00;;;9.13;100.00;95213.69;4938483;28;20583;-44
2023/05/15 00:17:31;;;;;;;;;;;13.70;66.00;;;9.13;100.00;95217.16;4956462;28;20412;-46
2023/05/15 00:19:58;;;;;;;;;;;13.70;66.00;;;9.13;100.00;95219.81;4948097;28;20031;-47
2023/05/15 00:22:25;;;;;;;;;;;13.70;66.00;;;9.13;100.00;95211.03;4945346;28;19910;-45
2023/05/15 00:24:51;;;;;;;;;;;13.70;66.00;;;9.13;100.00;95214.47;4937586;28;20226;-44
2023/05/15 00:27:16;;;;;;;;;;;13.70;66.10;;;9.13;100.00;95209.16;4937572;28;19925;-46
2023/05/15 00:29:42;;;;;;;;;;;13.70;66.10;;;9.12;100.00;95206.75;4947742;28;19965;-45
2023/05/15 00:32:08;;;;;;;;;;;13.70;66.10;;;9.14;100.00;95215.28;4937289;29;20019;-52
2023/05/15 00:34:34;;;;;;;;;;;13.70;66.10;;;9.14;100.00;95209.97;4945075;28;19914;-54
2023/05/15 00:36:59;;;;;;;;;;;13.70;66.10;;;9.13;100.00;95214.47;4941897;28;19910;-53
2023/05/15 00:39:26;;;;;;;;;;;13.70;66.20;;;9.11;100.00;95211.28;4936972;28;20292;-54
2023/05/15 00:41:53;;;;;;;;;;;13.70;66.20;;;9.12;100.00;95212.06;4937560;28;19914;-52
2023/05/15 00:44:21;;;;;;;;;;;13.70;66.30;;;9.10;100.00;95220.31;4937502;29;19946;-53
2023/05/15 00:46:48;;;;;;;;;;;13.70;66.20;;;9.12;100.00;95220.88;4962480;28;19917;-50
2023/05/15 00:49:17;;;;;;;;;;;13.60;66.20;;;9.12;100.00;95220.88;4937414;29;20016;-51
2023/05/15 00:51:43;;;;;;;;;;;13.70;66.30;;;9.11;100.00;95221.91;4963712;28;19910;-51
2023/05/15 00:54:10;;;;;;;;;;;13.70;66.30;;;9.12;100.00;95215.56;4944378;28;19914;-49
2023/05/15 00:56:36;;;;;;;;;;;13.70;66.30;;;9.14;100.00;95216.06;4936389;28;19937;-54
2023/05/15 00:59:03;;;;;;;;;;;13.70;66.30;;;9.11;100.00;95216.59;4936414;29;19915;-52
2023/05/15 01:01:33;;;;;;;;;;;13.70;66.30;;;9.12;100.00;95210.25;4938867;28;20423;-53
2023/05/15 01:04:02;;;;;;;;;;;13.70;66.30;;;9.13;100.00;95213.69;4947721;28;19950;-54
2023/05/15 01:06:30;;;;;;;;;;;13.70;66.30;;;9.13;100.00;95213.69;4936376;29;19910;-54
2023/05/15 01:09:05;;;;;;;;;;;13.70;66.40;;;9.12;100.00;95204.94;4936566;29;19953;-50
2023/05/15 01:11:37;;;;;;;;;;;13.70;66.40;;;9.13;100.00;95209.16;4936702;29;19918;-49
2023/05/15 01:14:07;;;;;;;;;;;13.70;66.40;;;9.14;100.00;95210.75;4936664;29;19938;-51
2023/05/15 01:16:35;;;;;;;;;;;13.70;66.40;;;9.15;100.00;95208.88;4941644;28;20292;-50
2023/05/15 01:19:01;;;;;;;;;;;13.70;66.50;;;9.16;100.00;95216.63;4936652;28;19910;-50
2023/05/15 01:21:36;;;;;;;;;;;13.70;67.30;;;9.11;100.00;95213.94;4935276;29;20017;-51
2023/05/15 01:24:34;;;;;;;;;;;13.70;66.60;;;9.16;100.00;95213.97;4938136;28;20353;-52
2023/05/15 01:27:17;;;;;;;;;;;13.70;66.60;;;9.22;100.00;95222.75;4935473;28;19918;-52
2023/05/15 01:30:08;;;;;;;;;;;13.70;66.70;;;9.24;100.00;95215.28;4951054;28;19917;-53
2023/05/15 01:32:51;;;;;;;;;;;13.70;66.70;;;9.23;100.00;95213.69;4936465;29;20324;-53
2023/05/15 01:35:28;;;;;;;;;;;13.70;66.70;;;9.26;100.00;95211.31;4959563;28;19961;-52
2023/05/15 01:38:14;;;;;;;;;;;13.80;66.80;;;9.28;100.00;95213.72;4935787;28;19910;-51
2023/05/15 01:40:43;;;;;;;;;;;13.80;66.80;;;9.31;100.00;95215.00;4959112;28;19918;-48
2023/05/15 01:43:19;;;;;;;;;;;13.80;66.80;;;9.33;100.00;95210.25;4963412;28;19916;-50
2023/05/15 01:45:45;;;;;;;;;;;13.80;66.80;;;9.34;100.00;95215.31;4962437;28;19960;-48
2023/05/15 01:48:14;;;;;;;;;;;13.80;66.80;;;9.32;100.00;95204.13;4936118;29;19911;-50
2023/05/15 01:50:44;;;;;;;;;;;13.80;66.80;;;9.23;100.00;95208.38;4961817;28;19918;-49
2023/05/15 01:53:13;;;;;;;;;;;13.80;66.80;;;9.24;100.00;95209.97;4967430;28;20427;-52
2023/05/15 01:55:40;;;;;;;;;;;13.70;66.80;;;9.27;100.00;95206.78;4965766;28;20017;-50
2023/05/15 01:58:08;;;;;;;;;;;13.70;66.90;;;9.33;100.00;95212.91;4956421;28;19914;-49
2023/05/15 02:00:37;;;;;;;;;;;13.70;67.00;;;9.36;100.00;95209.72;4935489;28;19915;-47
2023/05/15 02:03:05;;;;;;;;;;;13.70;67.20;;;9.35;100.00;95206.25;4958135;28;20005;-50
2023/05/15 02:05:33;;;;;;;;;;;13.70;67.20;;;9.34;100.00;95207.34;4953256;28;19910;-48
2023/05/15 02:08:03;;;;;;;;;;;13.70;67.20;;;9.33;100.00;95207.59;4943641;28;19917;-49
2023/05/15 02:10:31;;;;;;;;;;;13.60;67.20;;;9.31;100.00;95191.09;4963926;28;20329;-51
2023/05/15 02:12:59;;;;;;;;;;;13.70;67.30;;;9.19;100.00;95202.00;4966184;28;19916;-51
2023/05/15 02:15:28;;;;;;;;;;;13.60;67.30;;;9.20;100.00;95183.13;4938625;28;19941;-47
2023/05/15 02:17:54;;;;;;;;;;;13.60;67.30;;;9.18;100.00;95187.94;4952985;28;19914;-47
2023/05/15 02:20:20;;;;;;;;;;;13.60;67.40;;;9.17;100.00;95185.53;4935715;28;19910;-47
2023/05/15 02:22:46;;;;;;;;;;;13.50;67.40;;;9.14;100.00;95180.72;4941720;28;19917;-48
2023/05/15 02:25:12;;;;;;;;;;;13.50;67.50;;;9.13;100.00;95185.25;4954437;28;20004;-47
2023/05/15 02:28:00;;;;;;;;;;;13.40;67.60;;;9.11;100.00;95182.06;4943386;28;19972;-47
2023/05/15 02:30:45;;;;;;;;;;;13.50;67.80;;;9.13;100.00;95176.50;4942478;28;20004;-46
2023/05/15 02:33:12;;;;;;;;;;;13.40;67.80;;;9.12;100.00;95180.19;4951077;28;19932;-47
2023/05/15 02:36:01;;;;;;;;;;;13.40;67.80;;;9.08;100.00;95176.47;4952782;28;20009;-46
2023/05/15 02:38:38;;;;;;;;;;;13.30;67.80;;;9.08;100.00;95184.44;4946360;28;19919;-48
2023/05/15 02:41:06;;;;;;;;;;;13.40;68.00;;;9.01;100.00;95177.53;4960889;28;19925;-47
2023/05/15 02:43:35;;;;;;;;;;;13.40;68.00;;;9.03;100.00;95175.41;4955761;28;19914;-47
2023/05/15 02:46:04;;;;;;;;;;;13.30;67.90;;;8.99;100.00;95173.53;4964205;28;20437;-46
2023/05/15 02:48:30;;;;;;;;;;;13.30;67.90;;;8.96;100.00;95180.19;4934991;29;19911;-47
2023/05/15 02:50:56;;;;;;;;;;;13.30;67.90;;;8.90;100.00;95175.13;4962969;28;19911;-46
2023/05/15 02:53:22;;;;;;;;;;;13.30;67.80;;;8.87;100.00;95176.47;4967445;28;19925;-47
2023/05/15 02:55:48;;;;;;;;;;;13.30;67.80;;;8.82;100.00;95178.31;4936848;28;20333;-48
2023/05/15 02:58:14;;;;;;;;;;;13.20;67.70;;;8.75;100.00;95176.69;4941967;28;19914;-48
2023/05/15 03:00:40;;;;;;;;;;;13.20;67.70;;;8.70;100.00;95183.84;4953774;28;19916;-48
2023/05/15 03:03:05;;;;;;;;;;;13.10;67.60;;;8.64;100.00;95184.91;4953003;28;19914;-46
2023/05/15 03:05:31;;;;;;;;;;;13.10;67.60;;;8.57;100.00;95177.97;4952993;28;19948;-49
2023/05/15 03:07:59;;;;;;;;;;;13.00;67.60;;;8.49;100.00;95178.50;4953619;28;19917;-47
2023/05/15 03:10:25;;;;;;;;;;;13.00;67.50;;;8.40;100.00;95176.59;4945882;28;19916;-48
2023/05/15 03:12:50;;;;;;;;;;;12.90;67.50;;;8.32;100.00;95176.00;4953756;28;20440;-46
2023/05/15 03:15:17;;;;;;;;;;;12.90;67.50;;;8.26;100.00;95179.69;4950940;28;20273;-46
2023/05/15 03:17:43;;;;;;;;;;;12.80;67.50;;;8.20;100.00;95183.38;4945059;28;20431;-46
2023/05/15 03:20:09;;;;;;;;;;;12.80;67.50;;;8.14;100.00;95184.41;4953220;28;20000;-46
2023/05/15 03:22:35;;;;;;;;;;;12.70;67.60;;;8.13;100.00;95187.34;4952535;28;20009;-47
2023/05/15 03:25:01;;;;;;;;;;;12.70;67.70;;;8.08;100.00;95183.63;4952311;28;20012;-46
2023/05/15 03:27:27;;;;;;;;;;;12.70;67.80;;;8.12;100.00;95186.53;4949530;28;19940;-46
2023/05/15 03:29:53;;;;;;;;;;;12.70;67.90;;;8.17;100.00;95185.75;4952876;28;19914;-46
2023/05/15 03:32:18;;;;;;;;;;;12.70;67.90;;;8.21;100.00;95185.00;4968206;28;19910;-49
2023/05/15 03:34:44;;;;;;;;;;;12.70;68.00;;;8.24;100.00;95183.66;4952309;28;20008;-49
2023/05/15 03:37:10;;;;;;;;;;;12.70;68.00;;;8.27;100.00;95191.09;4952766;28;19925;-47
2023/05/15 03:39:35;;;;;;;;;;;12.80;68.00;;;8.30;100.00;95185.28;4952400;28;19921;-47
2023/05/15 03:42:02;;;;;;;;;;;12.80;68.00;;;8.30;100.00;95177.31;4953300;28;19914;-47
2023/05/15 03:44:28;;;;;;;;;;;12.80;68.00;;;8.31;100.00;95178.94;4952917;28;19910;-48
2023/05/15 03:46:54;;;;;;;;;;;12.80;67.90;;;8.34;100.00;95186.38;4951907;28;19910;-46
2023/05/15 03:49:19;;;;;;;;;;;12.80;67.90;;;8.37;100.00;95185.84;4952907;28;19914;-49
2023/05/15 03:51:45;;;;;;;;;;;12.90;68.00;;;8.35;100.00;95180.78;4946711;28;19910;-49
2023/05/15 03:54:11;;;;;;;;;;;12.90;68.00;;;8.35;100.00;95183.44;4950111;28;19925;-47
2023/05/15 03:56:39;;;;;;;;;;;12.90;68.00;;;8.32;100.00;95183.97;4951952;28;27793;-47
2023/05/15 03:59:04;;;;;;;;;;;12.90;67.80;;;8.29;100.00;95187.13;4951755;28;19949;-49
2023/05/15 04:01:30;;;;;;;;;;;12.90;67.80;;;8.28;100.00;95188.19;4952854;28;19914;-50
2023/05/15 04:03:56;;;;;;;;;;;12.90;67.80;;;8.29;100.00;95192.44;4951489;28;19910;-48
2023/05/15 04:06:22;;;;;;;;;;;12.90;67.90;;;8.29;100.00;95195.09;4952513;28;19953;-50
2023/05/15 04:08:49;;;;;;;;;;;12.80;67.90;;;8.32;100.00;95205.19;4951527;29;19910;-48
2023/05/15 04:11:15;;;;;;;;;;;12.90;68.00;;;8.34;100.00;95200.44;4952033;28;20285;-47
2023/05/15 04:13:40;;;;;;;;;;;12.90;68.00;;;8.37;100.00;95200.97;4952653;28;19996;-48
2023/05/15 04:16:07;;;;;;;;;;;12.90;68.00;;;8.40;100.00;95195.16;4942771;28;20778;-46
2023/05/15 04:18:33;;;;;;;;;;;13.00;68.00;;;8.44;100.00;95202.34;4933565;29;19918;-48
2023/05/15 04:20:59;;;;;;;;;;;13.00;68.00;;;8.48;100.00;95206.09;4933436;29;19914;-50
2023/05/15 04:23:25;;;;;;;;;;;13.10;68.00;;;8.51;100.00;95207.44;4936779;29;20358;-51
2023/05/15 04:25:52;;;;;;;;;;;13.10;68.00;;;8.54;100.00;95210.34;4941405;28;20353;-46
2023/05/15 04:28:20;;;;;;;;;;;13.10;67.90;;;8.57;100.00;95209.03;4966389;28;20041;-46
2023/05/15 04:30:46;;;;;;;;;;;13.20;68.00;;;8.61;100.00;95207.44;4953209;28;20000;-48
2023/05/15 04:33:12;;;;;;;;;;;13.20;67.90;;;8.65;100.00;95203.25;4948907;28;19958;-52
2023/05/15 04:35:38;;;;;;;;;;;13.30;68.00;;;8.68;100.00;95207.19;4941272;28;19923;-47
2023/05/15 04:38:03;;;;;;;;;;;13.30;67.90;;;8.72;100.00;95209.09;4960950;28;20436;-46
2023/05/15 04:40:29;;;;;;;;;;;13.40;67.90;;;8.77;100.00;95211.78;4942243;28;19910;-50
2023/05/15 04:42:55;;;;;;;;;;;13.40;67.90;;;8.81;100.00;95209.38;4951860;28;19957;-48
2023/05/15 04:45:23;;;;;;;;;;;13.50;68.00;;;8.86;100.00;95205.94;4948150;28;19914;-49
2023/05/15 04:47:49;;;;;;;;;;;13.60;67.90;;;8.89;100.00;95206.19;4936875;28;19918;-47
2023/05/15 04:50:14;;;;;;;;;;;13.60;67.80;;;8.91;100.00;95206.75;4934490;29;20016;-48
2023/05/15 04:52:41;;;;;;;;;;;13.70;67.80;;;8.96;100.00;95206.75;4932563;29;19921;-48
2023/05/15 04:55:08;;;;;;;;;;;13.70;67.60;;;8.99;100.00;95208.06;4933585;29;19941;-46
2023/05/15 04:57:34;;;;;;;;;;;13.80;67.60;;;9.05;100.00;95207.03;4935492;28;19954;-46
2023/05/15 05:00:01;;;;;;;;;;;13.90;67.60;;;9.09;100.00;95200.13;4956185;28;19949;-46
2023/05/15 05:02:26;;;;;;;;;;;13.90;67.60;;;9.16;100.00;95202.53;4967109;28;19917;-47
2023/05/15 05:04:52;;;;;;;;;;;14.00;67.50;;;9.19;100.00;95202.81;4940848;28;20281;-49
2023/05/15 05:07:18;;;;;;;;;;;14.00;67.50;;;9.24;100.00;95210.78;4936757;29;19910;-47
2023/05/15 05:09:44;;;;;;;;;;;14.10;67.50;;;9.29;100.00;95207.31;4934677;28;19911;-46
2023/05/15 05:12:10;;;;;;;;;;;14.20;67.50;;;9.33;100.00;95212.91;4936455;29;19925;-46
2023/05/15 05:14:36;;;;;;;;;;;14.20;67.50;;;9.30;100.00;95216.09;4957305;28;20349;-45
2023/05/15 05:17:02;;;;;;;;;;;14.20;67.40;;;9.32;100.00;95206.78;4952527;28;19993;-47
2023/05/15 05:19:28;;;;;;;;;;;14.20;67.30;;;9.39;100.00;95214.50;4936725;29;19937;-50
2023/05/15 05:21:54;;;;;;;;;;;14.30;67.30;;;9.47;100.00;95212.13;4939147;28;19910;-47
2023/05/15 05:24:20;;;;;;;;;;;14.30;67.30;;;9.55;100.00;95209.97;4936577;29;19910;-46
2023/05/15 05:26:47;;;;;;;;;;;14.40;67.40;;;9.63;100.00;95217.44;4936435;29;19935;-48
2023/05/15 05:31:47;;;;;;;;;;;14.60;67.30;;;9.85;100.00;95217.16;4972591;28;19968;-52
2023/05/15 05:34:12;;;;;;;;;;;14.80;67.40;;;9.92;100.00;95212.34;4973811;28;20300;-52
2023/05/15 05:36:38;;;;;;;;;;;14.90;67.30;;;9.96;100.00;95216.03;4961738;28;19910;-54
2023/05/15 05:39:04;;;;;;;;;;;15.00;67.30;;;10.01;100.00;95231.22;4965300;28;19914;-53
2023/05/15 05:41:30;;;;;;;;;;;15.00;67.10;;;10.07;100.00;95227.47;4962221;28;19988;-53
2023/05/15 05:43:56;;;;;;;;;;;15.10;67.10;;;10.10;100.00;95221.63;4954097;28;19918;-53
2023/05/15 05:46:21;;;;;;;;;;;15.20;67.00;;;10.16;100.00;95231.19;4953415;28;20262;-55
2023/05/15 05:48:47;;;;;;;;;;;15.20;66.90;;;10.22;100.00;95227.44;4953601;28;20323;-54
2023/05/15 05:51:13;;;;;;;;;;;15.30;67.00;;;10.19;100.00;95225.31;4953651;28;20001;-56
2023/05/15 05:53:39;;;;;;;;;;;15.30;67.70;;;10.26;100.00;95236.50;4954854;28;19925;-52
2023/05/15 05:56:07;;;;;;;;;;;15.30;66.90;;;10.34;100.00;95224.50;4951308;28;20361;-56
2023/05/15 05:58:32;;;;;;;;;;;15.40;67.00;;;10.40;100.00;95232.22;4952027;28;19918;-56
2023/05/15 06:00:59;;;;;;;;;;;15.40;66.90;;;10.45;100.00;95227.94;4969484;28;19910;-54
2023/05/15 06:03:26;;;;;;;;;;;15.40;66.90;;;10.48;100.00;95228.19;4953251;28;19936;-56
2023/05/15 06:05:52;;;;;;;;;;;15.40;66.90;;;10.48;100.00;95236.19;4954643;28;19957;-50
2023/05/15 06:08:19;;;;;;;;;;;15.40;66.90;;;10.47;100.00;95231.13;4954854;28;19960;-52
2023/05/15 06:10:44;;;;;;;;;;;15.40;66.90;;;10.44;100.00;95240.47;4952966;28;19910;-54
2023/05/15 06:13:13;;;;;;;;;;;15.40;67.00;;;10.44;100.00;95245.78;4954059;28;20387;-50
2023/05/15 06:15:39;;;;;;;;;;;15.40;67.00;;;10.47;100.00;95253.22;4951037;28;20376;-55
2023/05/15 06:18:05;;;;;;;;;;;15.30;66.90;;;10.50;100.00;95254.53;4953865;28;19996;-50
2023/05/15 06:20:31;;;;;;;;;;;15.30;67.00;;;10.49;100.00;95250.28;4954367;28;19989;-51
2023/05/15 06:22:57;;;;;;;;;;;15.30;67.10;;;10.49;100.00;95253.75;4953360;28;19910;-51
2023/05/15 06:25:23;;;;;;;;;;;15.20;67.10;;;10.48;100.00;95254.03;4954563;28;19960;-51
2023/05/15 06:27:49;;;;;;;;;;;15.20;67.20;;;10.44;100.00;95268.97;4953334;28;19914;-50
2023/05/15 06:30:14;;;;;;;;;;;15.10;67.20;;;10.37;100.00;95262.06;4954152;28;19924;-55
2023/05/15 06:32:41;;;;;;;;;;;15.10;67.20;;;10.35;100.00;95266.84;4954583;28;19959;-50
2023/05/15 06:35:08;;;;;;;;;;;15.10;67.30;;;10.34;100.00;95267.91;4953253;28;19918;-51
2023/05/15 06:37:35;;;;;;;;;;;15.00;67.30;;;10.27;100.00;95270.03;4954328;28;20415;-52
2023/05/15 06:40:01;;;;;;;;;;;15.00;67.40;;;10.20;100.00;95264.19;4950095;28;19948;-52
2023/05/15 06:42:26;;;;;;;;;;;14.90;67.40;;;10.22;100.00;95271.91;4953617;28;20380;-52
2023/05/15 06:44:52;;;;;;;;;;;14.80;67.40;;;10.16;100.00;95266.59;4954014;28;20423;-52
2023/05/15 06:47:18;;;;;;;;;;;14.80;67.50;;;10.15;100.00;95264.19;4952584;28;19968;-54
2023/05/15 06:49:43;;;;;;;;;;;14.70;67.50;;;10.13;100.00;95267.13;4952520;28;19909;-50
2023/05/15 06:52:09;;;;;;;;;;;14.70;67.60;;;10.08;100.00;95263.66;4951944;28;19945;-49
2023/05/15 06:54:35;;;;;;;;;;;14.60;67.60;;;10.10;100.00;95261.53;4952369;28;19914;-53
2023/05/15 06:57:01;;;;;;;;;;;14.60;67.70;;;10.09;100.00;95265.25;4953552;28;19920;-49
2023/05/15 06:59:27;;;;;;;;;;;14.60;67.70;;;10.07;100.00;95254.09;4952553;28;19910;-54
2023/05/15 07:01:54;;;;;;;;;;;14.60;67.80;;;10.03;100.00;95253.84;4953703;28;20377;-53
2023/05/15 07:04:20;;;;;;;;;;;14.60;67.80;;;10.05;100.00;95262.34;4953168;28;19910;-51
2023/05/15 07:06:46;;;;;;;;;;;14.60;67.80;;;10.07;100.00;95260.22;4953953;28;20329;-51
2023/05/15 07:09:12;;;;;;;;;;;14.70;67.80;;;10.12;100.00;95276.19;4952861;28;19910;-52
2023/05/15 07:11:39;;;;;;;;;;;14.70;67.80;;;10.17;100.00;95273.50;4953552;28;19981;-53
2023/05/15 07:14:05;;;;;;;;;;;14.80;67.70;;;10.23;100.00;95276.94;4953311;28;19918;-55
2023/05/15 07:16:31;;;;;;;;;;;14.90;67.70;;;10.15;100.00;95280.16;4952693;28;19958;-50
2023/05/15 07:18:57;;;;;;;;;;;14.90;67.60;;;10.09;100.00;95283.88;4953206;28;19945;-54
2023/05/15 07:21:23;;;;;;;;;;;14.90;67.50;;;10.12;100.00;95284.16;4952120;28;20359;-55
2023/05/15 07:23:48;;;;;;;;;;;14.90;67.60;;;10.10;100.00;95280.97;4953552;28;19914;-52
2023/05/15 07:26:14;;;;;;;;;;;14.80;67.60;;;10.13;100.00;95276.97;4953566;28;19917;-52
2023/05/15 07:28:40;;;;;;;;;;;14.90;67.70;;;10.18;100.00;95282.28;4952174;28;20323;-51
2023/05/15 07:31:07;;;;;;;;;;;14.90;67.70;;;10.20;100.00;95278.28;4952613;28;19949;-55
2023/05/15 07:33:32;;;;;;;;;;;14.90;67.80;;;10.29;100.00;95278.56;4955823;28;19910;-52
2023/05/15 07:35:58;;;;;;;;;;;15.00;67.70;;;10.39;100.00;95280.41;4960734;28;19917;-53
2023/05/15 07:38:24;;;;;;;;;;;15.10;67.60;;;10.45;100.00;95273.22;4952596;28;20451;-52
2023/05/15 07:40:50;;;;;;;;;;;15.20;67.50;;;10.54;100.00;95287.56;4952016;28;19914;-52
2023/05/15 07:43:16;;;;;;;;;;;15.40;67.50;;;10.59;100.00;95279.53;4953233;28;19956;-53
2023/05/15 07:45:42;;;;;;;;;;;15.40;67.40;;;10.63;100.00;95280.63;4952584;28;19910;-54
2023/05/15 07:48:18;;;;;;;;;;;15.50;67.50;;;10.68;100.00;95280.56;4953408;28;20004;-53
2023/05/15 07:50:46;;;;;;;;;;;15.50;67.40;;;10.70;100.00;95273.13;4950619;28;20016;-53
2023/05/15 07:53:15;;;;;;;;;;;15.60;67.40;;;10.82;100.00;95278.94;4950574;28;20377;-53
2023/05/15 07:55:43;;;;;;;;;;;15.70;67.30;;;10.86;100.00;95277.31;4953305;28;19918;-52
2023/05/15 07:58:09;;;;;;;;;;;15.80;67.10;;;10.87;100.00;95272.78;4952443;28;19917;-54
2023/05/15 08:00:36;;;;;;;;;;;15.90;67.00;;;10.94;100.00;95261.84;4952452;28;19910;-49
2023/05/15 08:03:01;;;;;;;;;;;16.00;66.70;;;11.01;100.00;95263.13;4953052;28;20284;-51
2023/05/15 08:05:28;;;;;;;;;;;16.10;66.60;;;11.05;100.00;95264.16;4952315;28;19910;-51
2023/05/15 08:07:55;;;;;;;;;;;16.10;66.40;;;11.09;100.00;95270.56;4952845;28;19937;-50
2023/05/15 08:10:21;;;;;;;;;;;16.20;66.50;;;11.11;100.00;95270.25;4951342;28;19914;-52
2023/05/15 08:12:49;;;;;;;;;;;16.10;66.50;;;11.14;100.00;95269.72;4952998;29;19914;-49
2023/05/15 08:15:15;;;;;;;;;;;16.20;66.60;;;11.16;100.00;95272.13;4952176;28;20348;-49
2023/05/15 08:17:41;;;;;;;;;;;16.30;66.60;;;11.17;100.00;95274.50;4952946;29;19937;-52
2023/05/15 08:20:07;;;;;;;;;;;16.40;66.50;;;11.18;100.00;95267.28;4952466;28;19914;-50
2023/05/15 08:22:33;;;;;;;;;;;16.40;66.40;;;11.22;100.00;95266.47;4952170;28;19913;-50
2023/05/15 08:24:59;;;;;;;;;;;16.50;66.10;;;11.24;100.00;95264.31;4952801;29;19960;-50
2023/05/15 08:27:25;;;;;;;;;;;16.70;65.90;;;11.41;100.00;95266.63;4951892;28;19914;-50
2023/05/15 08:29:53;;;;;;;;;;;16.90;65.80;;;11.54;100.00;95258.00;4952037;28;19918;-53
2023/05/15 08:32:19;;;;;;;;;;;17.10;65.50;;;11.70;100.00;95265.88;4956202;28;20009;-51
2023/05/15 08:34:45;;;;;;;;;;;17.30;65.30;;;11.84;100.00;95258.03;4955414;28;20012;-53
2023/05/15 08:37:10;;;;;;;;;;;17.40;65.10;;;11.81;100.00;95268.19;4956496;28;19973;-51
2023/05/15 08:39:36;;;;;;;;;;;17.50;64.90;;;11.90;100.00;95263.06;4954625;28;19925;-53
2023/05/15 08:42:31;;;;;;;;;;;17.60;64.90;;;12.09;100.00;95265.84;4956500;28;19921;-54
2023/05/15 08:44:59;;;;;;;;;;;17.60;65.00;;;12.13;100.00;95258.09;4956405;28;20009;-53
2023/05/15 08:47:28;;;;;;;;;;;17.70;64.90;;;12.04;100.00;95264.00;4953901;28;19910;-52
2023/05/15 08:50:13;;;;;;;;;;;17.60;64.80;;;12.03;100.00;95262.44;4947630;28;20329;-51
2023/05/15 08:52:45;;;;;;;;;;;17.50;64.70;;;12.07;100.00;95261.88;4949402;28;20268;-56
2023/05/15 08:55:16;;;;;;;;;;;17.40;64.80;;;12.09;100.00;95260.50;4952318;28;19914;-55
2023/05/15 08:57:43;;;;;;;;;;;17.40;64.90;;;12.08;100.00;95264.25;4951274;28;19914;-56
2023/05/15 09:00:13;;;;;;;;;;;17.30;64.90;;;12.07;100.00;95265.34;4953323;28;19914;-48
2023/05/15 09:02:41;;;;;;;;;;;17.30;64.90;;;12.07;100.00;95264.53;4954501;28;19910;-54
2023/05/15 09:05:09;;;;;;;;;;;17.20;65.00;;;12.04;100.00;95268.56;4959347;28;20005;-57
2023/05/15 09:07:37;;;;;;;;;;;17.10;65.10;;;11.92;100.00;95266.25;4955984;28;19910;-56
2023/05/15 09:10:04;;;;;;;;;;;17.00;65.10;;;11.89;100.00;95261.47;4953474;28;20387;-55
2023/05/15 09:12:33;;;;;;;;;;;16.80;65.00;;;11.88;100.00;95264.44;4955773;28;19914;-56
2023/05/15 09:15:16;;;;;;;;;;;16.80;65.40;;;11.79;100.00;95270.34;4954963;28;19968;-54
2023/05/15 09:17:42;;;;;;;;;;;16.70;65.40;;;11.76;100.00;95262.09;4946383;28;19933;-55
2023/05/15 09:20:24;;;;;;;;;;;16.60;65.40;;;11.72;100.00;95255.72;4954152;28;20008;-54
2023/05/15 09:22:49;;;;;;;;;;;16.60;65.40;;;11.70;100.00;95247.22;4956945;28;20288;-53
2023/05/15 09:25:42;;;;;;;;;;;16.60;65.40;;;11.69;100.00;95242.94;4955951;28;19914;-56
2023/05/15 09:28:23;;;;;;;;;;;16.60;65.30;;;11.71;100.00;95249.59;4954368;28;19910;-54
2023/05/15 09:30:49;;;;;;;;;;;16.70;65.30;;;11.70;100.00;95248.00;4954880;28;20402;-54
2023/05/15 09:33:16;;;;;;;;;;;16.80;65.20;;;11.77;100.00;95250.34;4953007;28;19911;-54
2023/05/15 09:35:45;;;;;;;;;;;16.90;65.00;;;11.87;100.00;95252.94;4955021;28;20013;-55
2023/05/15 09:38:11;;;;;;;;;;;17.10;64.90;;;12.03;100.00;95249.09;4955015;28;20005;-49
2023/05/15 09:40:41;;;;;;;;;;;17.40;64.80;;;12.22;100.00;95248.34;4953508;28;19914;-57
2023/05/15 09:43:12;;;;;;;;;;;17.80;64.50;;;12.44;100.00;95250.53;4952881;28;19953;-54
2023/05/15 09:45:38;;;;;;;;;;;18.20;64.10;;;12.48;100.00;95248.91;4953137;28;19914;-52
2023/05/15 09:48:06;;;;;;;;;;;18.50;63.40;;;12.64;99.77;95252.19;4954186;28;19917;-54
2023/05/15 09:50:37;;;;;;;;;;;18.80;63.10;;;12.91;100.00;95251.56;4954885;28;19916;-52
2023/05/15 09:53:04;;;;;;;;;;;19.20;63.00;;;13.13;100.00;95256.38;4953831;28;19956;-53
2023/05/15 09:55:35;;;;;;;;;;;19.40;62.70;;;13.34;96.32;95251.56;4955136;28;19921;-56
2023/05/15 09:58:13;;;;;;;;;;;19.70;62.50;;;13.31;96.83;95255.63;4942574;28;19973;-52
2023/05/15 10:00:41;;;;;;;;;;;20.00;61.70;;;13.65;95.88;95260.72;4954051;28;19910;-54
2023/05/15 10:03:08;;;;;;;;;;;20.30;61.40;;;13.92;95.62;95250.44;4954711;28;20365;-51
2023/05/15 10:05:35;;;;;;;;;;;20.50;61.20;;;13.91;92.61;95243.47;4954299;28;19997;-54
2023/05/15 10:08:02;;;;;;;;;;;20.70;60.90;;;14.17;90.78;95243.84;4953778;28;20381;-56
2023/05/15 10:10:30;;;;;;;;;;;20.80;60.80;;;14.33;89.49;95242.47;4953563;28;19910;-55
2023/05/15 10:13:02;;;;;;;;;;;21.00;60.70;;;14.44;89.19;95240.38;4954675;28;19952;-54
2023/05/15 10:15:28;;;;;;;;;;;21.00;60.40;;;14.54;86.82;95233.00;4953755;28;20005;-50
2023/05/15 10:17:54;;;;;;;;;;;21.00;60.20;;;14.75;89.34;95236.03;4953897;28;19961;-52
2023/05/15 10:20:23;;;;;;;;;;;21.00;60.30;;;14.68;83.03;95227.63;4954025;28;20001;-52
2023/05/15 10:22:52;;;;;;;;;;;21.00;60.30;;;14.75;83.85;95221.84;4954146;28;20359;-56
2023/05/15 10:26:01;;;;;;;;;;;20.90;60.30;;;14.75;84.15;95216.50;4954518;28;19913;-53
2023/05/15 10:28:28;;;;;;;;;;;20.90;60.10;;;14.85;84.22;95215.47;4932309;29;19910;-51
2023/05/15 10:31:00;;;;;;;;;;;20.90;60.30;;;15.06;86.08;95219.31;4950816;28;19971;-54
2023/05/15 10:33:28;;;;;;;;;;;21.00;60.00;;;15.30;82.66;95224.44;4953664;28;20218;-55
2023/05/15 10:35:57;;;;;;;;;;;21.20;60.00;;;15.53;80.88;95216.41;4965615;28;20016;-54
2023/05/15 10:38:26;;;;;;;;;;;21.50;59.80;;;15.67;84.07;95209.91;4951280;28;19949;-54
2023/05/15 10:40:53;;;;;;;;;;;21.70;59.70;;;15.98;81.43;95211.81;4948192;28;19949;-53
2023/05/15 10:43:20;;;;;;;;;;;22.20;59.40;;;16.21;80.94;95209.13;4968582;28;19917;-55
2023/05/15 10:45:47;;;;;;;;;;;22.80;59.10;;;16.70;79.61;95207.25;4952276;28;20344;-55
2023/05/15 10:48:14;;;;;;;;;;;23.70;58.30;;;17.11;74.65;95199.63;4952862;28;19914;-54
2023/05/15 10:50:40;;;;;;;;;;;24.60;57.40;;;17.50;67.53;95194.41;4952710;28;20009;-56
2023/05/15 10:53:09;;;;;;;;;;;25.40;56.50;;;17.84;72.58;95200.91;4951908;28;20324;-53
2023/05/15 10:55:36;;;;;;;;;;;26.20;55.60;;;18.06;63.16;95192.59;4953306;28;19937;-55
2023/05/15 10:58:07;;;;;;;;;;;26.50;54.80;;;18.15;64.85;95193.38;4951715;28;19917;-54
2023/05/15 11:00:40;;;;;;;;;;;26.60;54.10;;;18.29;63.66;95195.84;4953420;28;19997;-54
2023/05/15 11:03:05;;;;;;;;;;;26.60;53.80;;;18.27;59.27;95188.09;4952558;28;19950;-54
2023/05/15 11:06:11;;;;;;;;;;;26.50;53.60;;;18.55;62.38;95190.38;4968120;28;19964;-53
2023/05/15 11:08:40;;;;;;;;;;;26.70;52.90;;;18.76;60.48;95184.25;4954192;28;20425;-56
2023/05/15 11:11:06;;;;;;;;;;;26.70;52.80;;;18.89;65.38;95191.31;4952436;28;19909;-53
2023/05/15 11:14:07;;;;;;;;;;;26.80;52.80;;;19.02;66.81;95181.41;4953699;28;19910;-55
2023/05/15 11:16:51;;;;;;;;;;;26.90;52.90;;;18.96;59.00;95178.13;4944948;28;19914;-58
2023/05/15 11:19:56;;;;;;;;;;;26.90;52.80;;;18.67;63.95;95174.25;4953113;28;19917;-53
2023/05/15 11:22:37;;;;;;;;;;;26.80;52.00;;;18.76;62.07;95162.69;4951548;28;20288;-57